Atlantic, Iowa
Current Conditions -  °F | °C
As of 4:55 PM on Sunday 21 Dec 2014 (Local Time) from KAIO Reporting Station
Haze Haze  
Wind Chill:   Ceiling: 500
Heat Index:   Visibility: 3mi
Dew Point:   Wind: 13mph
Humidity: 100%   Direction: 180°S
Pressure: 29.75"   Gusts: NA
Location:  41.4°N, 95.01°W
Report Text: KAIO 212255Z AUTO 18011KT 3SM BR OVC005 05/05 A2975 RMK AO2
Loading
Personal Weather Stations






























Interactive Weather Map New forecast layout! Learn more

10-Day Weather Forecast

Advertisements
Track Severe Weather on mobile